Flight Track Log - Related Links

Times and Time Zones

All times are in EDT time to prevent confusion due to time zone crossing. See the FSR411 flight status page for this flight to view local times or setup timezone preferences in your user account.

Time Position Orientation Groundspeed Altitude Reporting Facility
EDT Latitude Longitude Course Direction KTS MPH feet Rate Location/Type
Tue 05:48:32 PM 40.0639 -88.3481 339° North 263 303 38,000  Level Chicago Center
Tue 05:49:34 PM 40.1242 -88.3747 341° North 266 306 6,900 -13,210 Descending Chicago Center
Tue 05:50:36 PM 40.2150 -88.4189 340° North 284 327 10,700 2,806 Climbing Chicago Center
Tue 05:51:38 PM 40.3050 -88.4611 340° North 340 391 12,700 2,323 Climbing Chicago Center
Tue 05:52:40 PM 40.4061 -88.5078 341° North 386 444 15,500 2,661 Climbing Chicago Center
Tue 05:53:00 PM 40.6094 -88.5464 339° North  Level FlightAware Approximate
Tue 05:53:42 PM 40.5122 -88.5589 340° North 397 457 18,200  Level Chicago Center
Tue 05:54:44 PM 40.6211 -88.6106 340° North 414 476 21,100 2,371 Climbing Chicago Center
Tue 05:55:46 PM 40.7342 -88.6639 340° North 428 493 23,100 2,419 Climbing Chicago Center
Tue 05:56:48 PM 40.8725 -88.7300 340° North 442 509 26,100 2,274 Climbing Chicago Center
Tue 05:57:50 PM 40.9908 -88.7875 340° North 451 519 27,800 1,536 Climbing Chicago Center
Tue 05:58:53 PM 41.1094 -88.8433 340° North 455 524 29,300 1,440 Climbing Chicago Center
Tue 05:59:55 PM 41.2350 -88.9053 340° North 475 547 30,800 1,452 Climbing Chicago Center
Tue 06:00:57 PM 41.3564 -88.9642 340° North 468 539 32,300 1,548 Climbing Chicago Center
Tue 06:01:59 PM 41.5050 -89.0381 340° North 475 547 34,000 1,548 Climbing Chicago Center
Tue 06:03:01 PM 41.6283 -89.0969 340° North 475 547 35,500 1,452 Climbing Chicago Center
Tue 06:04:03 PM 41.7494 -89.1575 340° North 469 540 37,000 1,161 Climbing Chicago Center
Tue 06:05:05 PM 41.8703 -89.2158 340° North 467 537 37,900 484 Climbing Chicago Center
Tue 06:06:07 PM 41.9914 -89.2786 339° North 470 541 38,000 48 Climbing Chicago Center
Tue 06:07:09 PM 42.1375 -89.3536 339° North 475 547 38,000  Level Chicago Center
Tue 06:08:11 PM 42.2633 -89.4167 340° North 481 554 38,000  Level Chicago Center
Tue 06:09:14 PM 42.3853 -89.4789 339° North 472 543 38,000  Level Chicago Center
Tue 06:10:16 PM 42.5108 -89.5419 340° North 476 548 38,000  Level Chicago Center
Tue 06:11:18 PM 42.6342 -89.6047 339° North 474 545 38,000  Level Chicago Center
Tue 06:12:20 PM 42.7600 -89.6683 340° North 477 549 38,000  Level Chicago Center
Tue 06:13:22 PM 42.9039 -89.7425 339° North 472 543 38,000  Level Chicago Center
Tue 06:14:24 PM 43.0267 -89.8067 339° North 470 541 38,000  Level Chicago Center
Tue 06:15:26 PM 43.1508 -89.8706 339° North 473 544 38,000 -194 Level Chicago Center
Tue 06:16:28 PM 43.2717 -89.9350 339° North 466 536 37,600 -919 Descending Chicago Center
Tue 06:17:30 PM 43.3956 -89.9986 340° North 470 541 36,100 -1,548 Descending Chicago Center
Tue 06:18:32 PM 43.5189 -90.0625 339° North 471 542 34,400 -1,790 Descending Chicago Center
Tue 06:19:34 PM 43.6633 -90.1392 339° North 475 547 32,400 -1,794 Descending Chicago Center
Tue 06:20:09 PM 43.7286 -90.1728 340° North 481 554 31,500 -1,608 Descending Minneapolis Center
Tue 06:21:11 PM 43.8575 -90.2408 339° North 493 567 29,800 -1,645 Descending Minneapolis Center
Tue 06:22:13 PM 43.9858 -90.3097 339° North 495 570 28,100 -871 Descending Minneapolis Center
Tue 06:23:15 PM 44.1328 -90.3889 339° North 486 559 28,000 -48 Descending Minneapolis Center
Tue 06:24:18 PM 44.2606 -90.4578 339° North 490 564 28,000 -384 Level Minneapolis Center
Tue 06:25:20 PM 44.3872 -90.5264 339° North 487 560 27,200 -1,015 Descending Minneapolis Center
Tue 06:26:34 PM 44.5122 -90.5925 339° North 480 552 25,700 -1,324 Descending Minneapolis Center
Tue 06:27:36 PM 44.6683 -90.6817 338° Northwest 466 536 24,200 -823 Descending Minneapolis Center
Tue 06:28:38 PM 44.7917 -90.7469 339° North 472 543 24,000 -435 Descending Minneapolis Center
Tue 06:29:40 PM 44.9183 -90.8181 338° Northwest 458 527 23,300 -768 Descending Minneapolis Center
Tue 06:30:43 PM 45.0331 -90.8819 339° North 444 511 22,400 -1,296 Descending Minneapolis Center
Tue 06:31:45 PM 45.1453 -90.9439 339° North 438 504 20,600 -1,742 Descending Minneapolis Center
Tue 06:32:47 PM 45.2550 -91.0058 338° Northwest 431 496 18,800 -1,935 Descending Minneapolis Center
Tue 06:33:49 PM 45.3575 -91.0631 339° North 412 474 16,600 -2,274 Descending Minneapolis Center
Tue 06:34:51 PM 45.4550 -91.1183 338° Northwest 393 452 14,100 -2,661 Descending Minneapolis Center
Tue 06:35:53 PM 45.5642 -91.1814 338° Northwest 369 425 11,100 -2,226 Descending Minneapolis Center
Tue 06:36:55 PM 45.6461 -91.2272 339° North 340 391 9,500 -1,742 Descending Minneapolis Center
Tue 06:37:57 PM 45.7192 -91.2697 338° Northwest 307 353 7,500 -1,935 Descending Minneapolis Center
Tue 06:38:59 PM 45.7886 -91.3089 339° North 284 327 5,500 -1,355 Descending Minneapolis Center
Tue 06:40:01 PM 45.8714 -91.3581 338° Northwest 280 322 4,700 -774 Descending Minneapolis Center
Tue 06:42:00 PM 46.0167 -91.4333 341° North  Level FlightAware Approximate
Tue 06:49:00 PM 46.0253 -91.4443 341° North  Level Estimated
Tue 06:50:00 PM 46.0253 -91.4443 341° North  Level Estimated

Login

Don't have an account? Register now (free) for customized features, flight alerts, and more!